Anjeliersgracht — PCGQ — position and weather

sailwx.info

Track history (hours):
 
Tides and Currents Weather Stations Pressure Air Temp Water Temp Dewpoint Dewpoint Depression Visibility Wind Speed Wind Dir Waves Ship Positions

Anjeliersgracht

Last reported at 2017-Feb-24 18:00 UTC. Time now 2017-Mar-26 07:30 UTC.
Position N 19°00' W 050°42'.
Warning: this ship's position is 29 days out of date.

Length 130 m; beam 19 m; draft 9 m.

Type: Cargo ship. MMSI: 244716000.

Wind from 110 at 5 knots

Barometer 1016.4 mb
Air temperature 28.0 ° C
Visibility: greater than 5.4 NM
Dewpoint 25.3 ° C
Water temperature 26.2 ° C

Date/timePositionNaut miles runAvg speedWind from/ knotsBaromVisibWave heightAir tempDewpointWater temp
2017-Feb-24 18:00N 19°00' W 050°42'14512.1 110 / 51016.4 5.4 28.025.326.2
2017-Feb-24 06:00N 16°36' W 050°24'40013.3 110 / 101015.7 5.4 26.023.725.9
2017-Feb-23 00:00N 10°00' W 049°24'23713.1 110 / 91012.810.8 27.023.1
2017-Feb-22 06:00N 06°06' W 048°48'7913.2 080 / 111010.1 5.4 27.123.827.9
2017-Feb-22 00:00N 04°48' W 048°36'26014.5 090 / 141012.010.8 26.922.9
2017-Feb-21 06:00N 00°30' W 048°00'4111.6 100 / 101010.4 5.4 26.723.527.7
2017-Feb-21 02:31S 00°10' W 047°53'1212.3
2017-Feb-21 01:33S 00°19' W 048°00'1414.2
2017-Feb-21 00:33S 00°26' W 048°13'1514.8
2017-Feb-20 23:33S 00°38' W 048°22'1812.7
2017-Feb-20 22:08S 00°55' W 048°28'712.1
2017-Feb-20 21:33S 01°02' W 048°28'10 9.6
2017-Feb-20 20:33S 01°10' W 048°32'1312.4
2017-Feb-20 19:33S 01°20' W 048°40'1313.6
2017-Feb-20 18:33S 01°32' W 048°46'2 1.0
2017-Feb-20 16:26S 01°34' W 048°47'0 0.0
2017-Feb-20 08:20S 01°34' W 048°47'0 0.0
2017-Feb-20 07:14S 01°34' W 048°47'0 0.0
2017-Feb-20 00:08S 01°34' W 048°47'0 0.0
2017-Feb-19 23:20S 01°34' W 048°47'0 0.0
2017-Feb-19 21:20S 01°34' W 048°47'0 0.0
2017-Feb-18 19:31S 01°34' W 048°47'0 0.0
2017-Feb-18 18:34S 01°34' W 048°47'3 3.1
2017-Feb-18 17:34S 01°31' W 048°46'1413.6
2017-Feb-18 16:33S 01°19' W 048°39'1414.0
2017-Feb-18 15:32S 01°07' W 048°31'1 0.1
2017-Feb-18 08:20S 01°07' W 048°31'0 0.1
2017-Feb-18 07:11S 01°07' W 048°31'0 0.0
2017-Feb-18 06:15S 01°07' W 048°31'0 0.0
2017-Feb-18 05:29S 01°07' W 048°31'0 0.0
2017-Feb-18 04:30S 01°07' W 048°31'0 0.0
2017-Feb-18 03:06S 01°07' W 048°31'0 0.2
2017-Feb-18 02:30S 01°07' W 048°31'0 0.0
2017-Feb-17 19:12S 01°07' W 048°31'0 0.0
2017-Feb-17 09:18S 01°07' W 048°31'0 0.0
2017-Feb-16 17:08S 01°07' W 048°31'0 0.0
2017-Feb-16 12:29S 01°07' W 048°31'0 0.0
2017-Feb-16 08:23S 01°07' W 048°31'0 0.0
2017-Feb-16 06:05S 01°07' W 048°31'0 0.0
2017-Feb-16 05:29S 01°07' W 048°31'0 0.0
2017-Feb-16 02:11S 01°07' W 048°31'0 0.1
2017-Feb-16 00:32S 01°07' W 048°31'0 0.0
2017-Feb-15 20:22S 01°07' W 048°31'0 0.0
2017-Feb-15 18:22S 01°07' W 048°31'0 0.0
2017-Feb-15 15:28S 01°07' W 048°31'0 0.0
2017-Feb-15 14:22S 01°07' W 048°31'0 0.0
2017-Feb-15 02:23S 01°07' W 048°31'0 0.1
2017-Feb-15 01:31S 01°07' W 048°31'0 0.1
2017-Feb-15 00:25S 01°07' W 048°31'1 0.1
2017-Feb-14 18:00S 01°06' W 048°30'   160 / 51009.410.8 28.223.828.5
Track history (hours):
 
Tides and Currents Weather Stations Pressure Air Temp Water Temp Dewpoint Dewpoint Depression Visibility Wind Speed Wind Dir Waves Ship Positions

Anjeliersgracht

Last reported at 2017-Feb-24 18:00 UTC. Time now 2017-Mar-26 07:30 UTC.
Position N 19°00' W 050°42'.
Warning: this ship's position is 29 days out of date.

Length 130 m; beam 19 m; draft 9 m.

Type: Cargo ship. MMSI: 244716000.

Wind from 110 at 5 knots

Barometer 1016.4 mb
Air temperature 28.0 ° C
Visibility: greater than 5.4 NM
Dewpoint 25.3 ° C
Water temperature 26.2 ° C

Date/timePositionNaut miles runAvg speedWind from/ knotsBaromVisibWave heightAir tempDewpointWater temp
2017-Feb-24 18:00N 19°00' W 050°42'14512.1 110 / 51016.4 5.4 28.025.326.2
2017-Feb-24 06:00N 16°36' W 050°24'40013.3 110 / 101015.7 5.4 26.023.725.9
2017-Feb-23 00:00N 10°00' W 049°24'23713.1 110 / 91012.810.8 27.023.1
2017-Feb-22 06:00N 06°06' W 048°48'7913.2 080 / 111010.1 5.4 27.123.827.9
2017-Feb-22 00:00N 04°48' W 048°36'26014.5 090 / 141012.010.8 26.922.9
2017-Feb-21 06:00N 00°30' W 048°00'4111.6 100 / 101010.4 5.4 26.723.527.7
2017-Feb-21 02:31S 00°10' W 047°53'1212.3
2017-Feb-21 01:33S 00°19' W 048°00'1414.2
2017-Feb-21 00:33S 00°26' W 048°13'1514.8
2017-Feb-20 23:33S 00°38' W 048°22'1812.7
2017-Feb-20 22:08S 00°55' W 048°28'712.1
2017-Feb-20 21:33S 01°02' W 048°28'10 9.6
2017-Feb-20 20:33S 01°10' W 048°32'1312.4
2017-Feb-20 19:33S 01°20' W 048°40'1313.6
2017-Feb-20 18:33S 01°32' W 048°46'2 1.0
2017-Feb-20 16:26S 01°34' W 048°47'0 0.0
2017-Feb-20 08:20S 01°34' W 048°47'0 0.0
2017-Feb-20 07:14S 01°34' W 048°47'0 0.0
2017-Feb-20 00:08S 01°34' W 048°47'0 0.0
2017-Feb-19 23:20S 01°34' W 048°47'0 0.0
2017-Feb-19 21:20S 01°34' W 048°47'0 0.0
2017-Feb-18 19:31S 01°34' W 048°47'0 0.0
2017-Feb-18 18:34S 01°34' W 048°47'3 3.1
2017-Feb-18 17:34S 01°31' W 048°46'1413.6
2017-Feb-18 16:33S 01°19' W 048°39'1414.0
2017-Feb-18 15:32S 01°07' W 048°31'1 0.1
2017-Feb-18 08:20S 01°07' W 048°31'0 0.1
2017-Feb-18 07:11S 01°07' W 048°31'0 0.0
2017-Feb-18 06:15S 01°07' W 048°31'0 0.0
2017-Feb-18 05:29S 01°07' W 048°31'0 0.0
2017-Feb-18 04:30S 01°07' W 048°31'0 0.0
2017-Feb-18 03:06S 01°07' W 048°31'0 0.2
2017-Feb-18 02:30S 01°07' W 048°31'0 0.0
2017-Feb-17 19:12S 01°07' W 048°31'0 0.0
2017-Feb-17 09:18S 01°07' W 048°31'0 0.0
2017-Feb-16 17:08S 01°07' W 048°31'0 0.0
2017-Feb-16 12:29S 01°07' W 048°31'0 0.0
2017-Feb-16 08:23S 01°07' W 048°31'0 0.0
2017-Feb-16 06:05S 01°07' W 048°31'0 0.0
2017-Feb-16 05:29S 01°07' W 048°31'0 0.0
2017-Feb-16 02:11S 01°07' W 048°31'0 0.1
2017-Feb-16 00:32S 01°07' W 048°31'0 0.0
2017-Feb-15 20:22S 01°07' W 048°31'0 0.0
2017-Feb-15 18:22S 01°07' W 048°31'0 0.0
2017-Feb-15 15:28S 01°07' W 048°31'0 0.0
2017-Feb-15 14:22S 01°07' W 048°31'0 0.0
2017-Feb-15 02:23S 01°07' W 048°31'0 0.1
2017-Feb-15 01:31S 01°07' W 048°31'0 0.1
2017-Feb-15 00:25S 01°07' W 048°31'1 0.1
2017-Feb-14 18:00S 01°06' W 048°30'   160 / 51009.410.8 28.223.828.5

Dump ship's entire track history